Miami — WDF6958 — position and weather

sailwx.info

Track history (hours):
 
Tides and Currents Weather Stations Pressure Air Temp Water Temp Dewpoint Dewpoint Depression Visibility Wind Speed Wind Dir Waves Ship Positions

Miami

Owner: Kirby Inland Marine LP, Houston, TX. More information available from US FCC via Universal Licensing System and Coast Guard Vessel Documentation Center.

Last reported at 2015-Aug-28 06:33 UTC. Time now 2015-Aug-28 07:32 UTC.
Position N 25°46' W 080°11'.

Length 23 m; draft 4 m.

Type: Other ship. MMSI: 367479630.

Date/timePositionNaut miles runAvg speedWind from/ knotsBaromVisibWave heightAir tempDewpointWater temp
2015-Aug-28 06:33N 25°46' W 080°11'0 0.0
2015-Aug-28 05:33N 25°46' W 080°11'0 0.0
2015-Aug-28 04:33N 25°46' W 080°11'0 0.0
2015-Aug-28 03:33N 25°46' W 080°11'0 0.0
2015-Aug-28 02:33N 25°46' W 080°11'0 0.0
2015-Aug-28 01:33N 25°46' W 080°11'0 0.0
2015-Aug-28 00:33N 25°46' W 080°11'1 0.6
2015-Aug-27 23:33N 25°47' W 080°10'1 0.6
2015-Aug-27 22:33N 25°46' W 080°11'0 0.0
2015-Aug-27 21:33N 25°46' W 080°11'0 0.0
2015-Aug-27 20:33N 25°46' W 080°11'0 0.0
2015-Aug-27 19:33N 25°46' W 080°11'0 0.0
2015-Aug-27 18:33N 25°46' W 080°11'0 0.0
2015-Aug-27 17:33N 25°46' W 080°11'0 0.0
2015-Aug-27 16:33N 25°46' W 080°11'0 0.0
2015-Aug-27 15:33N 25°46' W 080°11'0 0.0
2015-Aug-27 14:33N 25°46' W 080°11'0 0.0
2015-Aug-27 13:33N 25°46' W 080°11'1 0.6
2015-Aug-27 12:33N 25°47' W 080°10'1 0.9
2015-Aug-27 11:30N 25°46' W 080°09'1 1.5
2015-Aug-27 10:33N 25°47' W 080°10'2 2.1
2015-Aug-27 09:33N 25°46' W 080°08'2 2.2
2015-Aug-27 08:33N 25°46' W 080°11'0 0.0
2015-Aug-27 07:33N 25°46' W 080°11'0 0.0
2015-Aug-27 06:33N 25°46' W 080°11'0 0.0
2015-Aug-27 05:33N 25°46' W 080°11'0 0.0
2015-Aug-27 04:33N 25°46' W 080°11'0 0.0
2015-Aug-27 03:33N 25°46' W 080°11'0 0.0
2015-Aug-27 02:33N 25°46' W 080°11'0 0.0
2015-Aug-27 01:33N 25°46' W 080°11'0 0.0
2015-Aug-27 00:33N 25°46' W 080°11'0 0.0
2015-Aug-26 23:33N 25°46' W 080°11'0 0.0
2015-Aug-26 22:33N 25°46' W 080°11'0 0.0
2015-Aug-26 21:33N 25°46' W 080°11'0 0.0
2015-Aug-26 20:33N 25°46' W 080°11'0 0.0
2015-Aug-26 19:33N 25°46' W 080°11'0 0.0
2015-Aug-26 18:33N 25°46' W 080°11'0 0.0
2015-Aug-26 17:33N 25°46' W 080°11'0 0.0
2015-Aug-26 16:33N 25°46' W 080°11'0 0.0
2015-Aug-26 15:33N 25°46' W 080°11'0 0.0
2015-Aug-26 14:33N 25°46' W 080°11'0 0.0
2015-Aug-26 13:33N 25°46' W 080°11'0 0.0
2015-Aug-26 12:33N 25°46' W 080°11'0 0.0
2015-Aug-26 11:33N 25°46' W 080°11'0 0.0
2015-Aug-26 10:33N 25°46' W 080°11'0 0.0
2015-Aug-26 09:33N 25°46' W 080°11'0 0.0
2015-Aug-26 08:33N 25°46' W 080°11'0 0.0
2015-Aug-26 07:33N 25°46' W 080°11'0 0.0
2015-Aug-26 06:33N 25°46' W 080°11'0 0.0
2015-Aug-26 05:33N 25°46' W 080°11'0 0.0
2015-Aug-26 04:33N 25°46' W 080°11'0 0.0
2015-Aug-26 03:33N 25°46' W 080°11'0 0.0
2015-Aug-26 02:33N 25°46' W 080°11'0 0.0
2015-Aug-26 01:33N 25°46' W 080°11'0 0.0
2015-Aug-26 00:33N 25°46' W 080°11'0 0.0
2015-Aug-25 23:33N 25°46' W 080°11'2 1.4
2015-Aug-25 22:18N 25°46' W 080°09'2 2.5
2015-Aug-25 21:34N 25°47' W 080°11'0 0.4
2015-Aug-25 20:34N 25°46' W 080°11'0 0.0
2015-Aug-25 19:34N 25°46' W 080°11'0 0.0
2015-Aug-25 18:33N 25°46' W 080°11'0 0.0
2015-Aug-25 17:34N 25°46' W 080°11'0 0.0
2015-Aug-25 16:34N 25°46' W 080°11'0 0.0
2015-Aug-25 15:33N 25°46' W 080°11'0 0.0
2015-Aug-25 14:34N 25°46' W 080°11'2 0.6
2015-Aug-25 11:27N 25°46' W 080°08'0 0.0
2015-Aug-25 10:08N 25°46' W 080°08'0 0.0
2015-Aug-25 09:25N 25°46' W 080°08'0 0.0
2015-Aug-25 02:22N 25°46' W 080°08'0 0.0
2015-Aug-24 20:33N 25°46' W 080°08'2 1.7
2015-Aug-24 19:34N 25°47' W 080°10'0 0.2
2015-Aug-24 18:34N 25°47' W 080°10'0 0.0
2015-Aug-24 17:34N 25°47' W 080°10'0 0.0
2015-Aug-24 16:34N 25°47' W 080°10'0 0.0
2015-Aug-24 15:34N 25°47' W 080°10'0 0.0
2015-Aug-24 14:34N 25°47' W 080°10'0 0.0
2015-Aug-24 13:34N 25°47' W 080°10'0 0.0
2015-Aug-24 12:33N 25°47' W 080°10'1 0.5
2015-Aug-24 11:34N 25°47' W 080°10'0 0.0
2015-Aug-24 10:34N 25°47' W 080°10'0 0.0
2015-Aug-24 09:34N 25°47' W 080°10'0 0.0
2015-Aug-24 08:34N 25°47' W 080°10'0 0.0
2015-Aug-24 07:33N 25°47' W 080°10'0 0.0
2015-Aug-24 06:34N 25°47' W 080°10'0 0.0
2015-Aug-24 05:34N 25°47' W 080°10'0 0.0
2015-Aug-24 04:33N 25°47' W 080°10'0 0.0
2015-Aug-24 03:34N 25°47' W 080°10'0 0.0
2015-Aug-24 02:34N 25°47' W 080°10'1 1.4
2015-Aug-24 01:33N 25°46' W 080°09'1 1.4
2015-Aug-24 00:34N 25°47' W 080°10'0 0.0
2015-Aug-23 23:34N 25°47' W 080°10'0 0.3
2015-Aug-23 22:33N 25°47' W 080°11'0 0.0
2015-Aug-23 21:34N 25°47' W 080°11'0 0.0
2015-Aug-23 20:34N 25°47' W 080°11'0 0.0
2015-Aug-23 19:34N 25°47' W 080°11'0 0.0
2015-Aug-23 18:34N 25°47' W 080°11'0 0.0
2015-Aug-23 17:34N 25°47' W 080°11'1 0.6
2015-Aug-23 16:34N 25°47' W 080°10'1 1.3
2015-Aug-23 15:31N 25°46' W 080°09'1 1.0
2015-Aug-23 14:34N 25°46' W 080°08'2 2.2
2015-Aug-23 13:33N 25°47' W 080°10'0 0.0
2015-Aug-23 12:34N 25°47' W 080°10'2 1.6
2015-Aug-23 11:32N 25°46' W 080°08'0 0.1
2015-Aug-23 10:34N 25°46' W 080°08'0 0.0
2015-Aug-23 03:04N 25°46' W 080°08'1 2.1
2015-Aug-23 02:33N 25°46' W 080°10'1 1.1
2015-Aug-23 01:33N 25°46' W 080°08'0 0.0
2015-Aug-23 00:33N 25°46' W 080°08'0 0.0
2015-Aug-22 23:34N 25°46' W 080°08'0 0.0
2015-Aug-22 22:33N 25°46' W 080°08'2 2.3
2015-Aug-22 21:34N 25°47' W 080°11'0 0.0
2015-Aug-22 20:34N 25°47' W 080°11'0 0.0
2015-Aug-22 19:34N 25°47' W 080°11'0 0.0
2015-Aug-22 18:34N 25°47' W 080°11'0 0.0
2015-Aug-22 17:34N 25°47' W 080°11'0 0.0
2015-Aug-22 16:34N 25°47' W 080°11'1 0.6
2015-Aug-22 15:34N 25°47' W 080°10'0 0.0
2015-Aug-22 14:34N 25°47' W 080°10'0 0.0
2015-Aug-22 13:33N 25°47' W 080°10'0 0.0
2015-Aug-22 12:34N 25°47' W 080°10'0 0.0
2015-Aug-22 11:34N 25°47' W 080°10'0 0.4
2015-Aug-22 10:33N 25°47' W 080°11'0 0.0
2015-Aug-22 09:34N 25°47' W 080°11'0 0.0
2015-Aug-22 08:34N 25°47' W 080°11'0 0.0
2015-Aug-22 07:33N 25°47' W 080°11'0 0.0
2015-Aug-22 06:34N 25°47' W 080°11'0 0.0
2015-Aug-22 05:33N 25°47' W 080°11'0 0.0
2015-Aug-22 04:34N 25°47' W 080°11'0 0.0
2015-Aug-22 03:34N 25°47' W 080°11'0 0.0
2015-Aug-22 02:33N 25°47' W 080°11'0 0.0
2015-Aug-22 01:34N 25°47' W 080°11'0 0.0
2015-Aug-22 00:34N 25°47' W 080°11'0 0.0
2015-Aug-21 23:34N 25°47' W 080°11'0 0.0
2015-Aug-21 22:34N 25°47' W 080°11'2 1.6
2015-Aug-21 21:30N 25°46' W 080°09'2 1.6
2015-Aug-21 20:33N 25°46' W 080°11'0 0.0
2015-Aug-21 19:34N 25°46' W 080°11'0 0.5
2015-Aug-21 18:33N 25°46' W 080°10'1 0.9
2015-Aug-21 17:34N 25°47' W 080°11'0 0.1
2015-Aug-21 16:33N 25°47' W 080°11'0 0.0
2015-Aug-21 15:33N 25°47' W 080°11'0 0.1
2015-Aug-21 14:34N 25°47' W 080°11'0 0.0
2015-Aug-21 13:34N 25°47' W 080°11'0 0.1
2015-Aug-21 12:34N 25°47' W 080°11'1 1.1
2015-Aug-21 11:34N 25°46' W 080°10'0 0.0
2015-Aug-21 10:34N 25°46' W 080°10'0 0.0
2015-Aug-21 09:34N 25°46' W 080°10'0 0.0
2015-Aug-21 08:34N 25°46' W 080°10'0 0.0
2015-Aug-21 07:34N 25°46' W 080°10'0 0.0
2015-Aug-21 06:34N 25°46' W 080°10'0 0.0
2015-Aug-21 05:34N 25°46' W 080°10'0 0.0
2015-Aug-21 04:34N 25°46' W 080°10'0 0.0
2015-Aug-21 03:33N 25°46' W 080°10'0 0.0
2015-Aug-21 02:34N 25°46' W 080°10'0 0.0
2015-Aug-21 01:34N 25°46' W 080°10'0 0.0
2015-Aug-21 00:33N 25°46' W 080°10'0 0.0
2015-Aug-20 23:33N 25°46' W 080°10'1 0.5
2015-Aug-20 22:34N 25°46' W 080°10'1 0.6
2015-Aug-20 21:34N 25°46' W 080°11'0 0.0
2015-Aug-20 20:34N 25°46' W 080°11'0 0.0
2015-Aug-20 19:34N 25°46' W 080°11'0 0.0
2015-Aug-20 18:34N 25°46' W 080°11'0 0.0
2015-Aug-20 17:34N 25°46' W 080°11'0 0.0
2015-Aug-20 16:34N 25°46' W 080°11'0 0.0
2015-Aug-20 15:34N 25°46' W 080°11'0 0.0
2015-Aug-20 14:34N 25°46' W 080°11'0 0.0
2015-Aug-20 13:34N 25°46' W 080°11'2 1.9
2015-Aug-20 12:32N 25°46' W 080°08'0 0.0
2015-Aug-20 11:33N 25°46' W 080°08'0 0.0
2015-Aug-20 10:32N 25°46' W 080°08'0 0.0
2015-Aug-20 09:34N 25°46' W 080°08'0 0.0
2015-Aug-20 08:22N 25°46' W 080°08'0 0.0
2015-Aug-20 07:32N 25°46' W 080°08'0 0.0
2015-Aug-20 06:33N 25°46' W 080°08'0 0.0
2015-Aug-20 05:33N 25°46' W 080°08'0 0.0
2015-Aug-20 04:33N 25°46' W 080°08'0 0.0
2015-Aug-20 03:33N 25°46' W 080°08'0 0.0
2015-Aug-20 02:33N 25°46' W 080°08'0 0.0
2015-Aug-20 01:29N 25°46' W 080°08'0 0.0
2015-Aug-20 00:34N 25°46' W 080°08'0 0.0
2015-Aug-19 23:33N 25°46' W 080°08'0 0.0
2015-Aug-19 22:33N 25°46' W 080°08'0 0.1
2015-Aug-19 21:33N 25°46' W 080°09'2 1.9
2015-Aug-19 20:34N 25°46' W 080°11'0 0.0
2015-Aug-19 19:33N 25°46' W 080°11'0 0.0
2015-Aug-19 18:33N 25°46' W 080°11'0 0.0
2015-Aug-19 17:33N 25°46' W 080°11'0 0.0
2015-Aug-19 16:33N 25°46' W 080°11'0 0.0
2015-Aug-19 15:33N 25°46' W 080°11'0 0.0
2015-Aug-19 14:33N 25°46' W 080°11'0 0.0
2015-Aug-19 13:33N 25°46' W 080°11'2 1.7
2015-Aug-19 12:29N 25°46' W 080°09'0 0.0
2015-Aug-19 11:14N 25°46' W 080°09'2 1.3
2015-Aug-19 09:33N 25°47' W 080°11'0 0.1
2015-Aug-19 08:33N 25°47' W 080°11'0 0.0
2015-Aug-19 07:33N 25°47' W 080°11'0 0.0
2015-Aug-19 06:33N 25°47' W 080°11'0 0.0
2015-Aug-19 05:33N 25°47' W 080°11'0 0.0
2015-Aug-19 04:33N 25°47' W 080°11'0 0.0
2015-Aug-19 03:33N 25°47' W 080°11'0 0.0
2015-Aug-19 02:33N 25°47' W 080°11'0 0.0
2015-Aug-19 01:33N 25°47' W 080°11'0 0.0
2015-Aug-19 00:33N 25°47' W 080°11'0 0.0
2015-Aug-18 23:33N 25°47' W 080°11'0 0.0
2015-Aug-18 22:33N 25°47' W 080°11'0 0.0
2015-Aug-18 21:33N 25°47' W 080°11'0 0.0
2015-Aug-18 20:33N 25°47' W 080°11'0 0.0
2015-Aug-18 19:34N 25°47' W 080°11'0 0.0
2015-Aug-18 18:34N 25°47' W 080°11'0 0.0
2015-Aug-18 17:33N 25°47' W 080°11'0 0.0
2015-Aug-18 16:33N 25°47' W 080°11'0 0.0
2015-Aug-18 15:34N 25°47' W 080°11'0 0.0
2015-Aug-18 14:34N 25°47' W 080°11'0 0.0
2015-Aug-18 13:34N 25°47' W 080°11'0 0.0
2015-Aug-18 12:34N 25°47' W 080°11'0 0.0
2015-Aug-18 11:33N 25°47' W 080°11'0 0.0
2015-Aug-18 10:33N 25°47' W 080°11'0 0.0
2015-Aug-18 09:33N 25°47' W 080°11'0 0.0
2015-Aug-18 08:33N 25°47' W 080°11'0 0.0
2015-Aug-18 07:34N 25°47' W 080°11'0 0.0
2015-Aug-18 06:34N 25°47' W 080°11'  
Track history (hours):
 
Tides and Currents Weather Stations Pressure Air Temp Water Temp Dewpoint Dewpoint Depression Visibility Wind Speed Wind Dir Waves Ship Positions

Miami

Owner: Kirby Inland Marine LP, Houston, TX. More information available from US FCC via Universal Licensing System and Coast Guard Vessel Documentation Center.

Last reported at 2015-Aug-28 06:33 UTC. Time now 2015-Aug-28 07:32 UTC.
Position N 25°46' W 080°11'.

Length 23 m; draft 4 m.

Type: Other ship. MMSI: 367479630.

Date/timePositionNaut miles runAvg speedWind from/ knotsBaromVisibWave heightAir tempDewpointWater temp
2015-Aug-28 06:33N 25°46' W 080°11'0 0.0
2015-Aug-28 05:33N 25°46' W 080°11'0 0.0
2015-Aug-28 04:33N 25°46' W 080°11'0 0.0
2015-Aug-28 03:33N 25°46' W 080°11'0 0.0
2015-Aug-28 02:33N 25°46' W 080°11'0 0.0
2015-Aug-28 01:33N 25°46' W 080°11'0 0.0
2015-Aug-28 00:33N 25°46' W 080°11'1 0.6
2015-Aug-27 23:33N 25°47' W 080°10'1 0.6
2015-Aug-27 22:33N 25°46' W 080°11'0 0.0
2015-Aug-27 21:33N 25°46' W 080°11'0 0.0
2015-Aug-27 20:33N 25°46' W 080°11'0 0.0
2015-Aug-27 19:33N 25°46' W 080°11'0 0.0
2015-Aug-27 18:33N 25°46' W 080°11'0 0.0
2015-Aug-27 17:33N 25°46' W 080°11'0 0.0
2015-Aug-27 16:33N 25°46' W 080°11'0 0.0
2015-Aug-27 15:33N 25°46' W 080°11'0 0.0
2015-Aug-27 14:33N 25°46' W 080°11'0 0.0
2015-Aug-27 13:33N 25°46' W 080°11'1 0.6
2015-Aug-27 12:33N 25°47' W 080°10'1 0.9
2015-Aug-27 11:30N 25°46' W 080°09'1 1.5
2015-Aug-27 10:33N 25°47' W 080°10'2 2.1
2015-Aug-27 09:33N 25°46' W 080°08'2 2.2
2015-Aug-27 08:33N 25°46' W 080°11'0 0.0
2015-Aug-27 07:33N 25°46' W 080°11'0 0.0
2015-Aug-27 06:33N 25°46' W 080°11'0 0.0
2015-Aug-27 05:33N 25°46' W 080°11'0 0.0
2015-Aug-27 04:33N 25°46' W 080°11'0 0.0
2015-Aug-27 03:33N 25°46' W 080°11'0 0.0
2015-Aug-27 02:33N 25°46' W 080°11'0 0.0
2015-Aug-27 01:33N 25°46' W 080°11'0 0.0
2015-Aug-27 00:33N 25°46' W 080°11'0 0.0
2015-Aug-26 23:33N 25°46' W 080°11'0 0.0
2015-Aug-26 22:33N 25°46' W 080°11'0 0.0
2015-Aug-26 21:33N 25°46' W 080°11'0 0.0
2015-Aug-26 20:33N 25°46' W 080°11'0 0.0
2015-Aug-26 19:33N 25°46' W 080°11'0 0.0
2015-Aug-26 18:33N 25°46' W 080°11'0 0.0
2015-Aug-26 17:33N 25°46' W 080°11'0 0.0
2015-Aug-26 16:33N 25°46' W 080°11'0 0.0
2015-Aug-26 15:33N 25°46' W 080°11'0 0.0
2015-Aug-26 14:33N 25°46' W 080°11'0 0.0
2015-Aug-26 13:33N 25°46' W 080°11'0 0.0
2015-Aug-26 12:33N 25°46' W 080°11'0 0.0
2015-Aug-26 11:33N 25°46' W 080°11'0 0.0
2015-Aug-26 10:33N 25°46' W 080°11'0 0.0
2015-Aug-26 09:33N 25°46' W 080°11'0 0.0
2015-Aug-26 08:33N 25°46' W 080°11'0 0.0
2015-Aug-26 07:33N 25°46' W 080°11'0 0.0
2015-Aug-26 06:33N 25°46' W 080°11'0 0.0
2015-Aug-26 05:33N 25°46' W 080°11'0 0.0
2015-Aug-26 04:33N 25°46' W 080°11'0 0.0
2015-Aug-26 03:33N 25°46' W 080°11'0 0.0
2015-Aug-26 02:33N 25°46' W 080°11'0 0.0
2015-Aug-26 01:33N 25°46' W 080°11'0 0.0
2015-Aug-26 00:33N 25°46' W 080°11'0 0.0
2015-Aug-25 23:33N 25°46' W 080°11'2 1.4
2015-Aug-25 22:18N 25°46' W 080°09'2 2.5
2015-Aug-25 21:34N 25°47' W 080°11'0 0.4
2015-Aug-25 20:34N 25°46' W 080°11'0 0.0
2015-Aug-25 19:34N 25°46' W 080°11'0 0.0
2015-Aug-25 18:33N 25°46' W 080°11'0 0.0
2015-Aug-25 17:34N 25°46' W 080°11'0 0.0
2015-Aug-25 16:34N 25°46' W 080°11'0 0.0
2015-Aug-25 15:33N 25°46' W 080°11'0 0.0
2015-Aug-25 14:34N 25°46' W 080°11'2 0.6
2015-Aug-25 11:27N 25°46' W 080°08'0 0.0
2015-Aug-25 10:08N 25°46' W 080°08'0 0.0
2015-Aug-25 09:25N 25°46' W 080°08'0 0.0
2015-Aug-25 02:22N 25°46' W 080°08'0 0.0
2015-Aug-24 20:33N 25°46' W 080°08'2 1.7
2015-Aug-24 19:34N 25°47' W 080°10'0 0.2
2015-Aug-24 18:34N 25°47' W 080°10'0 0.0
2015-Aug-24 17:34N 25°47' W 080°10'0 0.0
2015-Aug-24 16:34N 25°47' W 080°10'0 0.0
2015-Aug-24 15:34N 25°47' W 080°10'0 0.0
2015-Aug-24 14:34N 25°47' W 080°10'0 0.0
2015-Aug-24 13:34N 25°47' W 080°10'0 0.0
2015-Aug-24 12:33N 25°47' W 080°10'1 0.5
2015-Aug-24 11:34N 25°47' W 080°10'0 0.0
2015-Aug-24 10:34N 25°47' W 080°10'0 0.0
2015-Aug-24 09:34N 25°47' W 080°10'0 0.0
2015-Aug-24 08:34N 25°47' W 080°10'0 0.0
2015-Aug-24 07:33N 25°47' W 080°10'0 0.0
2015-Aug-24 06:34N 25°47' W 080°10'0 0.0
2015-Aug-24 05:34N 25°47' W 080°10'0 0.0
2015-Aug-24 04:33N 25°47' W 080°10'0 0.0
2015-Aug-24 03:34N 25°47' W 080°10'0 0.0
2015-Aug-24 02:34N 25°47' W 080°10'1 1.4
2015-Aug-24 01:33N 25°46' W 080°09'1 1.4
2015-Aug-24 00:34N 25°47' W 080°10'0 0.0
2015-Aug-23 23:34N 25°47' W 080°10'0 0.3
2015-Aug-23 22:33N 25°47' W 080°11'0 0.0
2015-Aug-23 21:34N 25°47' W 080°11'0 0.0
2015-Aug-23 20:34N 25°47' W 080°11'0 0.0
2015-Aug-23 19:34N 25°47' W 080°11'0 0.0
2015-Aug-23 18:34N 25°47' W 080°11'0 0.0
2015-Aug-23 17:34N 25°47' W 080°11'1 0.6
2015-Aug-23 16:34N 25°47' W 080°10'1 1.3
2015-Aug-23 15:31N 25°46' W 080°09'1 1.0
2015-Aug-23 14:34N 25°46' W 080°08'2 2.2
2015-Aug-23 13:33N 25°47' W 080°10'0 0.0
2015-Aug-23 12:34N 25°47' W 080°10'2 1.6
2015-Aug-23 11:32N 25°46' W 080°08'0 0.1
2015-Aug-23 10:34N 25°46' W 080°08'0 0.0
2015-Aug-23 03:04N 25°46' W 080°08'1 2.1
2015-Aug-23 02:33N 25°46' W 080°10'1 1.1
2015-Aug-23 01:33N 25°46' W 080°08'0 0.0
2015-Aug-23 00:33N 25°46' W 080°08'0 0.0
2015-Aug-22 23:34N 25°46' W 080°08'0 0.0
2015-Aug-22 22:33N 25°46' W 080°08'2 2.3
2015-Aug-22 21:34N 25°47' W 080°11'0 0.0
2015-Aug-22 20:34N 25°47' W 080°11'0 0.0
2015-Aug-22 19:34N 25°47' W 080°11'0 0.0
2015-Aug-22 18:34N 25°47' W 080°11'0 0.0
2015-Aug-22 17:34N 25°47' W 080°11'0 0.0
2015-Aug-22 16:34N 25°47' W 080°11'1 0.6
2015-Aug-22 15:34N 25°47' W 080°10'0 0.0
2015-Aug-22 14:34N 25°47' W 080°10'0 0.0
2015-Aug-22 13:33N 25°47' W 080°10'0 0.0
2015-Aug-22 12:34N 25°47' W 080°10'0 0.0
2015-Aug-22 11:34N 25°47' W 080°10'0 0.4
2015-Aug-22 10:33N 25°47' W 080°11'0 0.0
2015-Aug-22 09:34N 25°47' W 080°11'0 0.0
2015-Aug-22 08:34N 25°47' W 080°11'0 0.0
2015-Aug-22 07:33N 25°47' W 080°11'0 0.0
2015-Aug-22 06:34N 25°47' W 080°11'0 0.0
2015-Aug-22 05:33N 25°47' W 080°11'0 0.0
2015-Aug-22 04:34N 25°47' W 080°11'0 0.0
2015-Aug-22 03:34N 25°47' W 080°11'0 0.0
2015-Aug-22 02:33N 25°47' W 080°11'0 0.0
2015-Aug-22 01:34N 25°47' W 080°11'0 0.0
2015-Aug-22 00:34N 25°47' W 080°11'0 0.0
2015-Aug-21 23:34N 25°47' W 080°11'0 0.0
2015-Aug-21 22:34N 25°47' W 080°11'2 1.6
2015-Aug-21 21:30N 25°46' W 080°09'2 1.6
2015-Aug-21 20:33N 25°46' W 080°11'0 0.0
2015-Aug-21 19:34N 25°46' W 080°11'0 0.5
2015-Aug-21 18:33N 25°46' W 080°10'1 0.9
2015-Aug-21 17:34N 25°47' W 080°11'0 0.1
2015-Aug-21 16:33N 25°47' W 080°11'0 0.0
2015-Aug-21 15:33N 25°47' W 080°11'0 0.1
2015-Aug-21 14:34N 25°47' W 080°11'0 0.0
2015-Aug-21 13:34N 25°47' W 080°11'0 0.1
2015-Aug-21 12:34N 25°47' W 080°11'1 1.1
2015-Aug-21 11:34N 25°46' W 080°10'0 0.0
2015-Aug-21 10:34N 25°46' W 080°10'0 0.0
2015-Aug-21 09:34N 25°46' W 080°10'0 0.0
2015-Aug-21 08:34N 25°46' W 080°10'0 0.0
2015-Aug-21 07:34N 25°46' W 080°10'0 0.0
2015-Aug-21 06:34N 25°46' W 080°10'0 0.0
2015-Aug-21 05:34N 25°46' W 080°10'0 0.0
2015-Aug-21 04:34N 25°46' W 080°10'0 0.0
2015-Aug-21 03:33N 25°46' W 080°10'0 0.0
2015-Aug-21 02:34N 25°46' W 080°10'0 0.0
2015-Aug-21 01:34N 25°46' W 080°10'0 0.0
2015-Aug-21 00:33N 25°46' W 080°10'0 0.0
2015-Aug-20 23:33N 25°46' W 080°10'1 0.5
2015-Aug-20 22:34N 25°46' W 080°10'1 0.6
2015-Aug-20 21:34N 25°46' W 080°11'0 0.0
2015-Aug-20 20:34N 25°46' W 080°11'0 0.0
2015-Aug-20 19:34N 25°46' W 080°11'0 0.0
2015-Aug-20 18:34N 25°46' W 080°11'0 0.0
2015-Aug-20 17:34N 25°46' W 080°11'0 0.0
2015-Aug-20 16:34N 25°46' W 080°11'0 0.0
2015-Aug-20 15:34N 25°46' W 080°11'0 0.0
2015-Aug-20 14:34N 25°46' W 080°11'0 0.0
2015-Aug-20 13:34N 25°46' W 080°11'2 1.9
2015-Aug-20 12:32N 25°46' W 080°08'0 0.0
2015-Aug-20 11:33N 25°46' W 080°08'0 0.0
2015-Aug-20 10:32N 25°46' W 080°08'0 0.0
2015-Aug-20 09:34N 25°46' W 080°08'0 0.0
2015-Aug-20 08:22N 25°46' W 080°08'0 0.0
2015-Aug-20 07:32N 25°46' W 080°08'0 0.0
2015-Aug-20 06:33N 25°46' W 080°08'0 0.0
2015-Aug-20 05:33N 25°46' W 080°08'0 0.0
2015-Aug-20 04:33N 25°46' W 080°08'0 0.0
2015-Aug-20 03:33N 25°46' W 080°08'0 0.0
2015-Aug-20 02:33N 25°46' W 080°08'0 0.0
2015-Aug-20 01:29N 25°46' W 080°08'0 0.0
2015-Aug-20 00:34N 25°46' W 080°08'0 0.0
2015-Aug-19 23:33N 25°46' W 080°08'0 0.0
2015-Aug-19 22:33N 25°46' W 080°08'0 0.1
2015-Aug-19 21:33N 25°46' W 080°09'2 1.9
2015-Aug-19 20:34N 25°46' W 080°11'0 0.0
2015-Aug-19 19:33N 25°46' W 080°11'0 0.0
2015-Aug-19 18:33N 25°46' W 080°11'0 0.0
2015-Aug-19 17:33N 25°46' W 080°11'0 0.0
2015-Aug-19 16:33N 25°46' W 080°11'0 0.0
2015-Aug-19 15:33N 25°46' W 080°11'0 0.0
2015-Aug-19 14:33N 25°46' W 080°11'0 0.0
2015-Aug-19 13:33N 25°46' W 080°11'2 1.7
2015-Aug-19 12:29N 25°46' W 080°09'0 0.0
2015-Aug-19 11:14N 25°46' W 080°09'2 1.3
2015-Aug-19 09:33N 25°47' W 080°11'0 0.1
2015-Aug-19 08:33N 25°47' W 080°11'0 0.0
2015-Aug-19 07:33N 25°47' W 080°11'0 0.0
2015-Aug-19 06:33N 25°47' W 080°11'0 0.0
2015-Aug-19 05:33N 25°47' W 080°11'0 0.0
2015-Aug-19 04:33N 25°47' W 080°11'0 0.0
2015-Aug-19 03:33N 25°47' W 080°11'0 0.0
2015-Aug-19 02:33N 25°47' W 080°11'0 0.0
2015-Aug-19 01:33N 25°47' W 080°11'0 0.0
2015-Aug-19 00:33N 25°47' W 080°11'0 0.0
2015-Aug-18 23:33N 25°47' W 080°11'0 0.0
2015-Aug-18 22:33N 25°47' W 080°11'0 0.0
2015-Aug-18 21:33N 25°47' W 080°11'0 0.0
2015-Aug-18 20:33N 25°47' W 080°11'0 0.0
2015-Aug-18 19:34N 25°47' W 080°11'0 0.0
2015-Aug-18 18:34N 25°47' W 080°11'0 0.0
2015-Aug-18 17:33N 25°47' W 080°11'0 0.0
2015-Aug-18 16:33N 25°47' W 080°11'0 0.0
2015-Aug-18 15:34N 25°47' W 080°11'0 0.0
2015-Aug-18 14:34N 25°47' W 080°11'0 0.0
2015-Aug-18 13:34N 25°47' W 080°11'0 0.0
2015-Aug-18 12:34N 25°47' W 080°11'0 0.0
2015-Aug-18 11:33N 25°47' W 080°11'0 0.0
2015-Aug-18 10:33N 25°47' W 080°11'0 0.0
2015-Aug-18 09:33N 25°47' W 080°11'0 0.0
2015-Aug-18 08:33N 25°47' W 080°11'0 0.0
2015-Aug-18 07:34N 25°47' W 080°11'0 0.0
2015-Aug-18 06:34N 25°47' W 080°11'  

Dump ship's entire track history